Seward, AK

12:47 PM AKDT on July 28, 2014 (GMT -0800)
Seward (PAWD) Elev 20 ft | 60.13 °N, 149.42 °W | Change Station

Current weather conditions updated 54 minutes ago

Overcast
Overcast
61 °F
Feels Like 61 °F
N
7
Wind Variable Wind from South

Today is forecast to be Cooler than yesterday. Light rain.

Today
High -- | Low -- °F
--% Chance of Precip.
Yesterday
High -- | Low -- °F
Precip. -- in
5:28 AM 10:37 PM
Waxing Crescent, 3% visible
Pressure 30.04 in
Visibility 10.0 miles
Clouds Few 5500 ft
Overcast 8000 ft
Dew Point 52 °F
Humidity 72%
Rainfall 0.00 in
Snow Depth 0 in , 12 in
UV 2 out of 12
Pollen Not available.
Air Quality Not available.
Flu Activity Not available.
METAR PAWD 281953Z AUTO 17006KT 10SM FEW055 OVC080 16/11 A3004 RMK AO2 SLP173 T01610111 TSNO

More Conditions Fewer Conditions

Pressure 30.04 in
Visibility 10.0 miles
Clouds Few 5500 ft
Overcast 8000 ft
Dew Point 52 °F
Humidity 72%
Rainfall 0.00 in
Snow Depth 0 in , 12 in
UV 2 out of 12
Pollen Not available.
Air Quality Not available.
Flu Activity Not available.
METAR PAWD 281953Z AUTO 17006KT 10SM FEW055 OVC080 16/11 A3004 RMK AO2 SLP173 T01610111 TSNO

More Conditions Fewer Conditions

10-Day Weather Forecast

Almanac

Astronomy

Jul. 28, 2014 Rise Set
Actual Time 5:28 AM AKDT 10:37 PM AKDT
Civil Twilight 4:24 AM AKDT 11:41 PM AKDT
Nautical Twilight 2:36 AM AKDT 1:31 AM AKDT
Astronomical Twilight Sun does not rise Sun does not rise
Moon 8:07 AM AKDT 10:29 PM AKDT
Length of Visible Light 19h 17m
Length of Day
17h 09m
Tomorrow will be 4m 44s shorter.
Waxing Crescent, 3% of the Moon is Illuminated
Today
Waxing Crescent
Aug 3
First Quarter
Aug 10
Full
Aug 17
Last Quarter
Aug 25
New

Today's Extremes

State Highs State Lows

Community

WunderPhotos

Upload Photos

1,738,488 photos uploaded!

Nearby

Snow Depth

Station Depth Elevation
Grouse Creek Divide 0 in 700 ft
Cooper Lake 12 in 1200 ft
Summit Creek 0 in 1400 ft
Grandview 5 in 1100 ft
MF Bradley River 204 in 2300 ft

Earthquake Activity

City Distance Mag. Time & Date
No recent earthquake activity has been reported nearby.
Minimum magnitude displayed is 2.5.

Coastal Water Temperatures

Place Temperature
No Stations Reporting

Nearby Weather Stations

Station Location Temp. Windchill Dew Point Humidity Wind Precip. Elev Updated Type
Oak Street Forest Acres Seward Alaska, Seward, AK 60.9 °F - 52 °F 73% North  at  0.0 mph 0.00 in / hr 144 ft 12:46 PM AKDT Rapid Fire
RAWS PEDERSEN LAGOON AK, Seward, AK 63 °F - 49 °F 60% North  at  2 mph 0.00 in / hr 625 ft 11:28 AM AKDT MADIS
RAWS KENAI LAKE AK, Moose Pass, AK 67 °F - 46 °F 47% SSE  at  2 mph 0.00 in / hr 470 ft 11:56 AM AKDT MADIS
RAWS HARDING ICEFIELD AK, Seward, AK 45 °F 42 °F 36 °F 68% NNW  at  6 mph 0.00 in / hr 4299 ft 11:43 AM AKDT MADIS
MARITIME , Chitina, AK 60 °F - 54 °F 82% North  at  11 mph 0.00 in / hr 0 ft 12:00 PM AKDT MADIS

Show More Stations Show Fewer Stations